sensor_id;sensor_type;location;lat;lon;timestamp;P1;durP1;ratioP1;P2;durP2;ratioP2
10517;SDS011;5307;42.548;22.968;2023-02-28T00:01:05;30.55;;;15.90;;
10517;SDS011;5307;42.548;22.968;2023-02-28T00:03:42;15.02;;;6.07;;
10517;SDS011;5307;42.548;22.968;2023-02-28T00:06:09;16.45;;;7.05;;
10517;SDS011;5307;42.548;22.968;2023-02-28T00:08:36;24.65;;;13.10;;
10517;SDS011;5307;42.548;22.968;2023-02-28T00:11:07;24.55;;;12.05;;
10517;SDS011;5307;42.548;22.968;2023-02-28T00:13:37;15.30;;;8.98;;
10517;SDS011;5307;42.548;22.968;2023-02-28T00:16:06;25.55;;;13.63;;
10517;SDS011;5307;42.548;22.968;2023-02-28T00:18:35;39.35;;;19.98;;
10517;SDS011;5307;42.548;22.968;2023-02-28T00:21:02;24.27;;;11.63;;
10517;SDS011;5307;42.548;22.968;2023-02-28T00:23:29;14.15;;;6.65;;
10517;SDS011;5307;42.548;22.968;2023-02-28T00:25:56;21.75;;;13.15;;
10517;SDS011;5307;42.548;22.968;2023-02-28T00:28:23;17.10;;;7.35;;
10517;SDS011;5307;42.548;22.968;2023-02-28T00:30:51;12.45;;;5.90;;
10517;SDS011;5307;42.548;22.968;2023-02-28T00:33:18;15.90;;;5.22;;
10517;SDS011;5307;42.548;22.968;2023-02-28T00:35:45;19.83;;;8.98;;
10517;SDS011;5307;42.548;22.968;2023-02-28T00:38:13;26.60;;;13.82;;
10517;SDS011;5307;42.548;22.968;2023-02-28T00:40:40;54.55;;;26.33;;
10517;SDS011;5307;42.548;22.968;2023-02-28T00:43:07;40.35;;;18.25;;
10517;SDS011;5307;42.548;22.968;2023-02-28T00:45:34;47.72;;;24.60;;
10517;SDS011;5307;42.548;22.968;2023-02-28T00:48:02;28.90;;;13.82;;
10517;SDS011;5307;42.548;22.968;2023-02-28T00:50:31;27.63;;;11.23;;
10517;SDS011;5307;42.548;22.968;2023-02-28T00:52:58;17.10;;;5.95;;
10517;SDS011;5307;42.548;22.968;2023-02-28T00:55:24;28.08;;;11.38;;
10517;SDS011;5307;42.548;22.968;2023-02-28T00:57:51;46.10;;;22.15;;
10517;SDS011;5307;42.548;22.968;2023-02-28T01:00:18;44.85;;;19.20;;
10517;SDS011;5307;42.548;22.968;2023-02-28T01:02:45;64.00;;;25.13;;
10517;SDS011;5307;42.548;22.968;2023-02-28T01:05:13;34.92;;;12.73;;
10517;SDS011;5307;42.548;22.968;2023-02-28T01:07:40;35.78;;;14.30;;
10517;SDS011;5307;42.548;22.968;2023-02-28T01:10:07;15.45;;;6.55;;
10517;SDS011;5307;42.548;22.968;2023-02-28T01:12:35;17.42;;;7.05;;
10517;SDS011;5307;42.548;22.968;2023-02-28T01:15:02;19.17;;;6.07;;
10517;SDS011;5307;42.548;22.968;2023-02-28T01:17:29;15.38;;;5.97;;
10517;SDS011;5307;42.548;22.968;2023-02-28T01:19:56;16.15;;;6.63;;
10517;SDS011;5307;42.548;22.968;2023-02-28T01:22:24;15.73;;;5.53;;
10517;SDS011;5307;42.548;22.968;2023-02-28T01:24:51;14.10;;;5.35;;
10517;SDS011;5307;42.548;22.968;2023-02-28T01:27:18;15.10;;;6.55;;
10517;SDS011;5307;42.548;22.968;2023-02-28T01:29:45;22.33;;;7.07;;
10517;SDS011;5307;42.548;22.968;2023-02-28T01:32:11;10.40;;;5.78;;
10517;SDS011;5307;42.548;22.968;2023-02-28T01:34:38;12.48;;;6.32;;
10517;SDS011;5307;42.548;22.968;2023-02-28T01:37:05;13.85;;;7.93;;
10517;SDS011;5307;42.548;22.968;2023-02-28T01:39:33;14.23;;;8.18;;
10517;SDS011;5307;42.548;22.968;2023-02-28T01:42:00;72.43;;;11.65;;
10517;SDS011;5307;42.548;22.968;2023-02-28T01:47:31;191.13;;;20.33;;
10517;SDS011;5307;42.548;22.968;2023-02-28T01:50:01;270.23;;;19.20;;
10517;SDS011;5307;42.548;22.968;2023-02-28T01:52:30;191.00;;;15.10;;
10517;SDS011;5307;42.548;22.968;2023-02-28T01:55:01;282.08;;;20.08;;
10517;SDS011;5307;42.548;22.968;2023-02-28T01:57:32;133.10;;;14.05;;
10517;SDS011;5307;42.548;22.968;2023-02-28T02:00:04;154.38;;;21.63;;
10517;SDS011;5307;42.548;22.968;2023-02-28T02:02:34;203.25;;;20.48;;
10517;SDS011;5307;42.548;22.968;2023-02-28T02:05:04;123.38;;;19.55;;
10517;SDS011;5307;42.548;22.968;2023-02-28T02:07:33;69.05;;;14.77;;
10517;SDS011;5307;42.548;22.968;2023-02-28T02:10:04;39.65;;;12.48;;
10517;SDS011;5307;42.548;22.968;2023-02-28T02:12:45;29.88;;;12.60;;
10517;SDS011;5307;42.548;22.968;2023-02-28T02:15:26;29.98;;;11.40;;
10517;SDS011;5307;42.548;22.968;2023-02-28T02:18:00;26.08;;;9.93;;
10517;SDS011;5307;42.548;22.968;2023-02-28T02:20:42;33.53;;;12.38;;
10517;SDS011;5307;42.548;22.968;2023-02-28T02:23:31;40.80;;;15.35;;
10517;SDS011;5307;42.548;22.968;2023-02-28T02:26:18;44.85;;;17.75;;
10517;SDS011;5307;42.548;22.968;2023-02-28T02:29:01;30.88;;;12.63;;
10517;SDS011;5307;42.548;22.968;2023-02-28T02:34:58;42.95;;;14.25;;
10517;SDS011;5307;42.548;22.968;2023-02-28T02:37:32;41.60;;;14.02;;
10517;SDS011;5307;42.548;22.968;2023-02-28T02:40:07;44.15;;;13.88;;
10517;SDS011;5307;42.548;22.968;2023-02-28T02:42:41;31.75;;;13.13;;
10517;SDS011;5307;42.548;22.968;2023-02-28T02:45:16;35.53;;;15.13;;
10517;SDS011;5307;42.548;22.968;2023-02-28T02:47:47;30.52;;;11.38;;
10517;SDS011;5307;42.548;22.968;2023-02-28T02:50:17;52.00;;;22.08;;
10517;SDS011;5307;42.548;22.968;2023-02-28T02:52:50;33.55;;;15.85;;
10517;SDS011;5307;42.548;22.968;2023-02-28T02:55:20;28.80;;;13.38;;
10517;SDS011;5307;42.548;22.968;2023-02-28T02:57:50;28.10;;;11.55;;
10517;SDS011;5307;42.548;22.968;2023-02-28T03:00:20;25.85;;;10.57;;
10517;SDS011;5307;42.548;22.968;2023-02-28T03:02:50;26.80;;;9.45;;
10517;SDS011;5307;42.548;22.968;2023-02-28T03:05:21;94.43;;;11.80;;
10517;SDS011;5307;42.548;22.968;2023-02-28T03:07:51;111.45;;;11.75;;
10517;SDS011;5307;42.548;22.968;2023-02-28T03:10:28;239.63;;;24.27;;
10517;SDS011;5307;42.548;22.968;2023-02-28T03:16:03;58.95;;;11.65;;
10517;SDS011;5307;42.548;22.968;2023-02-28T03:18:43;114.40;;;17.77;;
10517;SDS011;5307;42.548;22.968;2023-02-28T03:21:22;99.55;;;13.10;;
10517;SDS011;5307;42.548;22.968;2023-02-28T03:23:55;84.00;;;11.20;;
10517;SDS011;5307;42.548;22.968;2023-02-28T03:26:30;127.18;;;13.40;;
10517;SDS011;5307;42.548;22.968;2023-02-28T03:29:02;220.02;;;14.82;;
10517;SDS011;5307;42.548;22.968;2023-02-28T03:31:32;170.85;;;15.98;;
10517;SDS011;5307;42.548;22.968;2023-02-28T03:34:04;199.48;;;14.25;;
10517;SDS011;5307;42.548;22.968;2023-02-28T03:36:37;147.02;;;11.80;;
10517;SDS011;5307;42.548;22.968;2023-02-28T03:39:09;153.07;;;12.18;;
10517;SDS011;5307;42.548;22.968;2023-02-28T03:41:41;161.32;;;15.10;;
10517;SDS011;5307;42.548;22.968;2023-02-28T03:44:13;82.88;;;14.60;;
10517;SDS011;5307;42.548;22.968;2023-02-28T03:46:45;100.00;;;12.05;;
10517;SDS011;5307;42.548;22.968;2023-02-28T03:49:16;64.50;;;9.75;;
10517;SDS011;5307;42.548;22.968;2023-02-28T03:52:04;77.70;;;11.52;;
10517;SDS011;5307;42.548;22.968;2023-02-28T03:54:35;36.03;;;10.52;;
10517;SDS011;5307;42.548;22.968;2023-02-28T04:10:53;20.38;;;7.97;;
10517;SDS011;5307;42.548;22.968;2023-02-28T04:14:06;21.45;;;8.80;;
10517;SDS011;5307;42.548;22.968;2023-02-28T04:16:35;45.67;;;16.13;;
10517;SDS011;5307;42.548;22.968;2023-02-28T04:21:53;58.10;;;9.13;;
10517;SDS011;5307;42.548;22.968;2023-02-28T04:24:21;28.67;;;7.53;;
10517;SDS011;5307;42.548;22.968;2023-02-28T04:26:51;45.30;;;8.70;;
10517;SDS011;5307;42.548;22.968;2023-02-28T04:29:20;38.45;;;7.43;;
10517;SDS011;5307;42.548;22.968;2023-02-28T04:31:48;28.75;;;7.97;;
10517;SDS011;5307;42.548;22.968;2023-02-28T04:34:15;31.30;;;9.75;;
10517;SDS011;5307;42.548;22.968;2023-02-28T04:36:44;36.05;;;8.05;;
10517;SDS011;5307;42.548;22.968;2023-02-28T04:39:11;79.28;;;9.80;;
10517;SDS011;5307;42.548;22.968;2023-02-28T04:41:38;42.33;;;8.55;;
10517;SDS011;5307;42.548;22.968;2023-02-28T04:44:06;90.43;;;12.05;;
10517;SDS011;5307;42.548;22.968;2023-02-28T04:46:33;73.10;;;10.52;;
10517;SDS011;5307;42.548;22.968;2023-02-28T04:48:59;83.38;;;10.40;;
10517;SDS011;5307;42.548;22.968;2023-02-28T04:51:26;142.40;;;11.60;;
10517;SDS011;5307;42.548;22.968;2023-02-28T04:53:53;81.10;;;10.43;;
10517;SDS011;5307;42.548;22.968;2023-02-28T04:56:20;71.57;;;11.25;;
10517;SDS011;5307;42.548;22.968;2023-02-28T04:58:47;63.00;;;12.02;;
10517;SDS011;5307;42.548;22.968;2023-02-28T05:01:18;66.43;;;11.02;;
10517;SDS011;5307;42.548;22.968;2023-02-28T05:03:47;121.20;;;11.93;;
10517;SDS011;5307;42.548;22.968;2023-02-28T05:06:14;63.47;;;10.65;;
10517;SDS011;5307;42.548;22.968;2023-02-28T05:08:41;98.15;;;11.88;;
10517;SDS011;5307;42.548;22.968;2023-02-28T05:11:12;87.85;;;10.57;;
10517;SDS011;5307;42.548;22.968;2023-02-28T05:13:41;96.72;;;8.73;;
10517;SDS011;5307;42.548;22.968;2023-02-28T05:16:08;38.88;;;8.25;;
10517;SDS011;5307;42.548;22.968;2023-02-28T05:18:36;103.35;;;10.93;;
10517;SDS011;5307;42.548;22.968;2023-02-28T05:21:03;70.10;;;9.55;;
10517;SDS011;5307;42.548;22.968;2023-02-28T05:23:30;141.45;;;13.02;;
10517;SDS011;5307;42.548;22.968;2023-02-28T05:25:57;131.77;;;11.48;;
10517;SDS011;5307;42.548;22.968;2023-02-28T05:28:24;125.40;;;12.10;;
10517;SDS011;5307;42.548;22.968;2023-02-28T05:30:52;119.70;;;13.57;;
10517;SDS011;5307;42.548;22.968;2023-02-28T05:33:19;100.30;;;13.23;;
10517;SDS011;5307;42.548;22.968;2023-02-28T05:35:47;124.97;;;15.38;;
10517;SDS011;5307;42.548;22.968;2023-02-28T05:38:14;99.18;;;12.02;;
10517;SDS011;5307;42.548;22.968;2023-02-28T05:40:40;121.07;;;13.80;;
10517;SDS011;5307;42.548;22.968;2023-02-28T05:43:09;104.32;;;15.15;;
10517;SDS011;5307;42.548;22.968;2023-02-28T05:45:36;107.63;;;16.48;;
10517;SDS011;5307;42.548;22.968;2023-02-28T05:48:03;74.35;;;11.63;;
10517;SDS011;5307;42.548;22.968;2023-02-28T05:50:31;126.03;;;15.18;;
10517;SDS011;5307;42.548;22.968;2023-02-28T05:52:59;82.40;;;13.27;;
10517;SDS011;5307;42.548;22.968;2023-02-28T05:55:25;70.20;;;11.40;;
10517;SDS011;5307;42.548;22.968;2023-02-28T05:57:52;92.18;;;15.25;;
10517;SDS011;5307;42.548;22.968;2023-02-28T06:00:19;64.93;;;11.77;;
10517;SDS011;5307;42.548;22.968;2023-02-28T06:02:46;58.38;;;11.05;;
10517;SDS011;5307;42.548;22.968;2023-02-28T06:05:14;71.25;;;10.77;;
10517;SDS011;5307;42.548;22.968;2023-02-28T06:07:43;57.17;;;12.43;;
10517;SDS011;5307;42.548;22.968;2023-02-28T06:10:12;40.55;;;11.93;;
10517;SDS011;5307;42.548;22.968;2023-02-28T06:12:39;101.00;;;14.75;;
10517;SDS011;5307;42.548;22.968;2023-02-28T06:15:09;117.97;;;13.25;;
10517;SDS011;5307;42.548;22.968;2023-02-28T06:17:38;84.93;;;14.20;;
10517;SDS011;5307;42.548;22.968;2023-02-28T06:20:06;100.97;;;15.45;;
10517;SDS011;5307;42.548;22.968;2023-02-28T06:25:10;67.25;;;13.82;;
10517;SDS011;5307;42.548;22.968;2023-02-28T06:27:38;53.83;;;15.43;;
10517;SDS011;5307;42.548;22.968;2023-02-28T06:30:05;82.53;;;15.50;;
10517;SDS011;5307;42.548;22.968;2023-02-28T06:32:33;88.20;;;16.30;;
10517;SDS011;5307;42.548;22.968;2023-02-28T06:35:01;61.22;;;17.05;;
10517;SDS011;5307;42.548;22.968;2023-02-28T06:37:28;49.97;;;15.32;;
10517;SDS011;5307;42.548;22.968;2023-02-28T06:39:56;49.50;;;20.48;;
10517;SDS011;5307;42.548;22.968;2023-02-28T06:42:24;30.90;;;14.00;;
10517;SDS011;5307;42.548;22.968;2023-02-28T06:44:53;15.25;;;9.15;;
10517;SDS011;5307;42.548;22.968;2023-02-28T06:47:20;25.65;;;11.23;;
10517;SDS011;5307;42.548;22.968;2023-02-28T06:49:48;13.70;;;4.60;;
10517;SDS011;5307;42.548;22.968;2023-02-28T06:52:15;12.27;;;5.68;;
10517;SDS011;5307;42.548;22.968;2023-02-28T06:54:42;19.33;;;6.72;;
10517;SDS011;5307;42.548;22.968;2023-02-28T06:57:09;14.25;;;5.85;;
10517;SDS011;5307;42.548;22.968;2023-02-28T06:59:37;13.32;;;5.10;;
10517;SDS011;5307;42.548;22.968;2023-02-28T07:02:04;13.15;;;5.22;;
10517;SDS011;5307;42.548;22.968;2023-02-28T07:04:32;10.85;;;5.90;;
10517;SDS011;5307;42.548;22.968;2023-02-28T07:06:59;19.35;;;7.53;;
10517;SDS011;5307;42.548;22.968;2023-02-28T07:09:26;20.92;;;10.25;;
10517;SDS011;5307;42.548;22.968;2023-02-28T07:11:55;21.10;;;10.10;;
10517;SDS011;5307;42.548;22.968;2023-02-28T07:14:21;20.15;;;10.40;;
10517;SDS011;5307;42.548;22.968;2023-02-28T07:16:49;29.02;;;14.02;;
10517;SDS011;5307;42.548;22.968;2023-02-28T07:19:16;29.88;;;14.90;;
10517;SDS011;5307;42.548;22.968;2023-02-28T07:21:43;40.65;;;15.77;;
10517;SDS011;5307;42.548;22.968;2023-02-28T07:24:10;46.08;;;16.63;;
10517;SDS011;5307;42.548;22.968;2023-02-28T07:26:37;41.67;;;18.02;;
10517;SDS011;5307;42.548;22.968;2023-02-28T07:29:03;43.90;;;16.60;;
10517;SDS011;5307;42.548;22.968;2023-02-28T07:31:30;50.75;;;18.33;;
10517;SDS011;5307;42.548;22.968;2023-02-28T07:33:58;50.08;;;22.48;;
10517;SDS011;5307;42.548;22.968;2023-02-28T07:36:25;44.88;;;19.45;;
10517;SDS011;5307;42.548;22.968;2023-02-28T07:38:52;39.90;;;17.67;;
10517;SDS011;5307;42.548;22.968;2023-02-28T07:41:20;48.78;;;23.48;;
10517;SDS011;5307;42.548;22.968;2023-02-28T07:43:49;33.90;;;13.63;;
10517;SDS011;5307;42.548;22.968;2023-02-28T07:46:16;26.80;;;12.50;;
10517;SDS011;5307;42.548;22.968;2023-02-28T07:48:45;26.33;;;10.75;;
10517;SDS011;5307;42.548;22.968;2023-02-28T07:51:13;21.33;;;10.07;;
10517;SDS011;5307;42.548;22.968;2023-02-28T07:53:40;20.92;;;9.73;;
10517;SDS011;5307;42.548;22.968;2023-02-28T07:56:07;21.83;;;10.95;;
10517;SDS011;5307;42.548;22.968;2023-02-28T07:58:35;19.70;;;8.70;;
10517;SDS011;5307;42.548;22.968;2023-02-28T08:01:05;17.90;;;7.70;;
10517;SDS011;5307;42.548;22.968;2023-02-28T08:03:33;21.10;;;9.75;;
10517;SDS011;5307;42.548;22.968;2023-02-28T08:06:00;23.52;;;8.93;;
10517;SDS011;5307;42.548;22.968;2023-02-28T08:08:29;20.63;;;8.77;;
10517;SDS011;5307;42.548;22.968;2023-02-28T08:10:57;23.25;;;9.18;;
10517;SDS011;5307;42.548;22.968;2023-02-28T08:13:25;36.50;;;12.45;;
10517;SDS011;5307;42.548;22.968;2023-02-28T08:15:54;28.50;;;11.40;;
10517;SDS011;5307;42.548;22.968;2023-02-28T08:18:22;21.98;;;10.30;;
10517;SDS011;5307;42.548;22.968;2023-02-28T08:20:49;25.30;;;10.82;;
10517;SDS011;5307;42.548;22.968;2023-02-28T08:23:16;20.02;;;9.30;;
10517;SDS011;5307;42.548;22.968;2023-02-28T08:25:44;23.80;;;10.10;;
10517;SDS011;5307;42.548;22.968;2023-02-28T08:28:20;19.38;;;7.97;;
10517;SDS011;5307;42.548;22.968;2023-02-28T08:30:47;29.75;;;9.18;;
10517;SDS011;5307;42.548;22.968;2023-02-28T08:33:14;24.70;;;9.20;;
10517;SDS011;5307;42.548;22.968;2023-02-28T08:35:41;32.20;;;12.23;;
10517;SDS011;5307;42.548;22.968;2023-02-28T08:38:07;23.95;;;8.75;;
10517;SDS011;5307;42.548;22.968;2023-02-28T08:40:34;20.55;;;9.35;;
10517;SDS011;5307;42.548;22.968;2023-02-28T08:43:02;23.98;;;9.85;;
10517;SDS011;5307;42.548;22.968;2023-02-28T08:45:29;24.38;;;9.35;;
10517;SDS011;5307;42.548;22.968;2023-02-28T08:47:56;30.42;;;11.60;;
10517;SDS011;5307;42.548;22.968;2023-02-28T08:50:23;36.58;;;13.45;;
10517;SDS011;5307;42.548;22.968;2023-02-28T08:52:50;26.80;;;9.68;;
10517;SDS011;5307;42.548;22.968;2023-02-28T08:55:17;22.38;;;9.00;;
10517;SDS011;5307;42.548;22.968;2023-02-28T08:57:43;19.25;;;9.57;;
10517;SDS011;5307;42.548;22.968;2023-02-28T09:00:12;15.50;;;8.93;;
10517;SDS011;5307;42.548;22.968;2023-02-28T09:02:39;18.42;;;7.18;;
10517;SDS011;5307;42.548;22.968;2023-02-28T09:05:09;17.88;;;7.78;;
10517;SDS011;5307;42.548;22.968;2023-02-28T09:07:35;22.27;;;9.23;;
10517;SDS011;5307;42.548;22.968;2023-02-28T09:10:02;23.42;;;8.60;;
10517;SDS011;5307;42.548;22.968;2023-02-28T09:12:32;27.63;;;8.18;;
10517;SDS011;5307;42.548;22.968;2023-02-28T09:15:00;19.90;;;8.88;;
10517;SDS011;5307;42.548;22.968;2023-02-28T09:17:29;17.08;;;8.93;;
10517;SDS011;5307;42.548;22.968;2023-02-28T09:19:55;25.45;;;10.43;;
10517;SDS011;5307;42.548;22.968;2023-02-28T09:22:23;21.48;;;7.07;;
10517;SDS011;5307;42.548;22.968;2023-02-28T09:24:50;18.65;;;9.63;;
10517;SDS011;5307;42.548;22.968;2023-02-28T09:27:16;22.88;;;9.73;;
10517;SDS011;5307;42.548;22.968;2023-02-28T09:29:43;21.83;;;9.88;;
10517;SDS011;5307;42.548;22.968;2023-02-28T09:32:10;26.23;;;12.25;;
10517;SDS011;5307;42.548;22.968;2023-02-28T09:34:38;20.52;;;9.63;;
10517;SDS011;5307;42.548;22.968;2023-02-28T09:37:05;23.90;;;12.30;;
10517;SDS011;5307;42.548;22.968;2023-02-28T09:39:32;32.55;;;16.40;;
10517;SDS011;5307;42.548;22.968;2023-02-28T09:41:59;23.77;;;11.75;;
10517;SDS011;5307;42.548;22.968;2023-02-28T09:44:28;25.45;;;10.27;;
10517;SDS011;5307;42.548;22.968;2023-02-28T09:47:01;47.47;;;16.45;;
10517;SDS011;5307;42.548;22.968;2023-02-28T09:49:37;41.33;;;17.75;;
10517;SDS011;5307;42.548;22.968;2023-02-28T09:52:10;83.32;;;33.97;;
10517;SDS011;5307;42.548;22.968;2023-02-28T09:54:40;39.70;;;16.65;;
10517;SDS011;5307;42.548;22.968;2023-02-28T09:57:08;24.58;;;11.43;;
10517;SDS011;5307;42.548;22.968;2023-02-28T09:59:45;44.17;;;15.57;;
10517;SDS011;5307;42.548;22.968;2023-02-28T10:02:24;34.60;;;11.77;;
10517;SDS011;5307;42.548;22.968;2023-02-28T10:05:14;28.15;;;10.10;;
10517;SDS011;5307;42.548;22.968;2023-02-28T10:07:48;49.78;;;22.63;;
10517;SDS011;5307;42.548;22.968;2023-02-28T10:10:25;44.63;;;17.63;;
10517;SDS011;5307;42.548;22.968;2023-02-28T10:12:56;26.08;;;12.07;;
10517;SDS011;5307;42.548;22.968;2023-02-28T10:15:27;23.50;;;12.00;;
10517;SDS011;5307;42.548;22.968;2023-02-28T10:17:58;28.73;;;12.52;;
10517;SDS011;5307;42.548;22.968;2023-02-28T10:20:29;32.38;;;13.60;;
10517;SDS011;5307;42.548;22.968;2023-02-28T10:23:02;28.70;;;12.98;;
10517;SDS011;5307;42.548;22.968;2023-02-28T10:25:36;24.52;;;11.23;;
10517;SDS011;5307;42.548;22.968;2023-02-28T10:28:08;24.23;;;11.57;;
10517;SDS011;5307;42.548;22.968;2023-02-28T10:30:37;25.65;;;10.63;;
10517;SDS011;5307;42.548;22.968;2023-02-28T10:33:08;28.38;;;13.32;;
10517;SDS011;5307;42.548;22.968;2023-02-28T10:35:46;28.30;;;12.80;;
10517;SDS011;5307;42.548;22.968;2023-02-28T10:38:15;34.58;;;16.05;;
10517;SDS011;5307;42.548;22.968;2023-02-28T10:40:44;27.70;;;12.05;;
10517;SDS011;5307;42.548;22.968;2023-02-28T10:43:18;31.27;;;11.75;;
10517;SDS011;5307;42.548;22.968;2023-02-28T10:45:55;27.85;;;12.00;;
10517;SDS011;5307;42.548;22.968;2023-02-28T10:48:36;29.17;;;11.88;;
10517;SDS011;5307;42.548;22.968;2023-02-28T10:51:05;27.02;;;12.70;;
10517;SDS011;5307;42.548;22.968;2023-02-28T10:53:37;25.23;;;11.52;;
10517;SDS011;5307;42.548;22.968;2023-02-28T10:56:15;29.95;;;14.23;;
10517;SDS011;5307;42.548;22.968;2023-02-28T10:58:54;30.10;;;14.18;;
10517;SDS011;5307;42.548;22.968;2023-02-28T11:01:24;36.25;;;13.20;;
10517;SDS011;5307;42.548;22.968;2023-02-28T11:04:00;26.10;;;13.98;;
10517;SDS011;5307;42.548;22.968;2023-02-28T11:06:30;21.90;;;11.82;;
10517;SDS011;5307;42.548;22.968;2023-02-28T11:08:59;34.25;;;14.55;;
10517;SDS011;5307;42.548;22.968;2023-02-28T11:11:27;29.40;;;14.20;;
10517;SDS011;5307;42.548;22.968;2023-02-28T11:13:57;39.55;;;13.90;;
10517;SDS011;5307;42.548;22.968;2023-02-28T11:16:33;24.10;;;10.57;;
10517;SDS011;5307;42.548;22.968;2023-02-28T11:19:02;32.08;;;13.52;;
10517;SDS011;5307;42.548;22.968;2023-02-28T11:21:32;31.27;;;12.85;;
10517;SDS011;5307;42.548;22.968;2023-02-28T11:24:05;37.22;;;13.90;;
10517;SDS011;5307;42.548;22.968;2023-02-28T11:26:45;27.50;;;12.13;;
10517;SDS011;5307;42.548;22.968;2023-02-28T11:29:19;28.85;;;13.48;;
10517;SDS011;5307;42.548;22.968;2023-02-28T11:32:03;28.35;;;10.80;;
10517;SDS011;5307;42.548;22.968;2023-02-28T11:34:46;29.33;;;12.82;;
10517;SDS011;5307;42.548;22.968;2023-02-28T11:37:27;25.83;;;11.43;;
10517;SDS011;5307;42.548;22.968;2023-02-28T11:39:56;29.17;;;14.10;;
10517;SDS011;5307;42.548;22.968;2023-02-28T11:42:36;39.03;;;14.88;;
10517;SDS011;5307;42.548;22.968;2023-02-28T11:45:22;34.10;;;13.25;;
10517;SDS011;5307;42.548;22.968;2023-02-28T11:48:01;36.88;;;15.02;;
10517;SDS011;5307;42.548;22.968;2023-02-28T11:50:45;27.92;;;14.52;;
10517;SDS011;5307;42.548;22.968;2023-02-28T11:53:21;30.98;;;11.27;;
10517;SDS011;5307;42.548;22.968;2023-02-28T11:55:58;27.75;;;11.50;;
10517;SDS011;5307;42.548;22.968;2023-02-28T11:58:41;30.02;;;13.93;;
10517;SDS011;5307;42.548;22.968;2023-02-28T12:01:19;36.10;;;15.73;;
10517;SDS011;5307;42.548;22.968;2023-02-28T12:03:56;32.03;;;17.17;;
10517;SDS011;5307;42.548;22.968;2023-02-28T12:06:31;36.65;;;13.82;;
10517;SDS011;5307;42.548;22.968;2023-02-28T12:09:08;34.85;;;14.25;;
10517;SDS011;5307;42.548;22.968;2023-02-28T12:11:56;34.53;;;13.90;;
10517;SDS011;5307;42.548;22.968;2023-02-28T12:14:42;31.48;;;14.70;;
10517;SDS011;5307;42.548;22.968;2023-02-28T12:17:23;34.90;;;14.30;;
10517;SDS011;5307;42.548;22.968;2023-02-28T12:20:00;37.22;;;16.13;;
10517;SDS011;5307;42.548;22.968;2023-02-28T12:22:36;35.58;;;16.05;;
10517;SDS011;5307;42.548;22.968;2023-02-28T12:28:30;43.15;;;17.40;;
10517;SDS011;5307;42.548;22.968;2023-02-28T12:31:14;35.10;;;15.52;;
10517;SDS011;5307;42.548;22.968;2023-02-28T12:33:46;37.42;;;17.52;;
10517;SDS011;5307;42.548;22.968;2023-02-28T12:36:25;68.32;;;32.58;;
10517;SDS011;5307;42.548;22.968;2023-02-28T12:38:54;56.15;;;25.85;;
10517;SDS011;5307;42.548;22.968;2023-02-28T12:41:29;61.45;;;25.35;;
10517;SDS011;5307;42.548;22.968;2023-02-28T12:44:06;42.25;;;20.95;;
10517;SDS011;5307;42.548;22.968;2023-02-28T12:46:38;46.08;;;24.50;;
10517;SDS011;5307;42.548;22.968;2023-02-28T12:49:10;45.60;;;23.08;;
10517;SDS011;5307;42.548;22.968;2023-02-28T12:51:42;39.63;;;20.52;;
10517;SDS011;5307;42.548;22.968;2023-02-28T12:54:12;60.10;;;22.98;;
10517;SDS011;5307;42.548;22.968;2023-02-28T12:56:47;48.65;;;20.35;;
10517;SDS011;5307;42.548;22.968;2023-02-28T12:59:24;55.58;;;22.20;;
10517;SDS011;5307;42.548;22.968;2023-02-28T13:02:00;49.03;;;25.88;;
10517;SDS011;5307;42.548;22.968;2023-02-28T13:08:15;56.13;;;21.52;;
10517;SDS011;5307;42.548;22.968;2023-02-28T13:10:59;50.28;;;23.15;;
10517;SDS011;5307;42.548;22.968;2023-02-28T13:13:26;45.75;;;21.92;;
10517;SDS011;5307;42.548;22.968;2023-02-28T13:16:01;54.00;;;26.13;;
10517;SDS011;5307;42.548;22.968;2023-02-28T13:18:31;35.17;;;14.32;;
10517;SDS011;5307;42.548;22.968;2023-02-28T13:21:01;48.30;;;21.95;;
10517;SDS011;5307;42.548;22.968;2023-02-28T13:29:36;44.58;;;20.40;;
10517;SDS011;5307;42.548;22.968;2023-02-28T13:44:05;48.53;;;20.85;;
10517;SDS011;5307;42.548;22.968;2023-02-28T13:46:34;59.35;;;22.95;;
10517;SDS011;5307;42.548;22.968;2023-02-28T13:49:24;45.75;;;24.50;;
10517;SDS011;5307;42.548;22.968;2023-02-28T13:51:55;47.92;;;19.45;;
10517;SDS011;5307;42.548;22.968;2023-02-28T13:54:40;56.17;;;23.70;;
10517;SDS011;5307;42.548;22.968;2023-02-28T13:57:23;53.45;;;26.00;;
10517;SDS011;5307;42.548;22.968;2023-02-28T14:00:02;54.03;;;22.98;;
10517;SDS011;5307;42.548;22.968;2023-02-28T14:08:52;53.75;;;22.42;;
10517;SDS011;5307;42.548;22.968;2023-02-28T14:11:24;44.38;;;19.05;;
10517;SDS011;5307;42.548;22.968;2023-02-28T14:13:53;46.50;;;22.02;;
10517;SDS011;5307;42.548;22.968;2023-02-28T14:16:21;42.15;;;21.98;;
10517;SDS011;5307;42.548;22.968;2023-02-28T14:18:55;54.00;;;22.58;;
10517;SDS011;5307;42.548;22.968;2023-02-28T14:21:26;50.13;;;22.60;;
10517;SDS011;5307;42.548;22.968;2023-02-28T14:27:03;47.20;;;19.30;;
10517;SDS011;5307;42.548;22.968;2023-02-28T14:29:44;52.53;;;22.08;;
10517;SDS011;5307;42.548;22.968;2023-02-28T14:32:31;45.85;;;19.10;;
10517;SDS011;5307;42.548;22.968;2023-02-28T14:35:03;46.70;;;18.65;;
10517;SDS011;5307;42.548;22.968;2023-02-28T14:37:45;51.40;;;20.85;;
10517;SDS011;5307;42.548;22.968;2023-02-28T14:40:14;57.03;;;24.00;;
10517;SDS011;5307;42.548;22.968;2023-02-28T14:42:46;61.10;;;23.08;;
10517;SDS011;5307;42.548;22.968;2023-02-28T14:45:17;56.28;;;24.00;;
10517;SDS011;5307;42.548;22.968;2023-02-28T14:47:46;52.33;;;24.05;;
10517;SDS011;5307;42.548;22.968;2023-02-28T14:50:18;50.03;;;23.10;;
10517;SDS011;5307;42.548;22.968;2023-02-28T14:52:48;54.83;;;21.73;;
10517;SDS011;5307;42.548;22.968;2023-02-28T14:55:18;50.55;;;25.52;;
10517;SDS011;5307;42.548;22.968;2023-02-28T14:57:52;47.80;;;21.38;;
10517;SDS011;5307;42.548;22.968;2023-02-28T15:00:21;56.42;;;24.33;;
10517;SDS011;5307;42.548;22.968;2023-02-28T15:02:49;50.00;;;21.98;;
10517;SDS011;5307;42.548;22.968;2023-02-28T15:05:25;49.08;;;21.17;;
10517;SDS011;5307;42.548;22.968;2023-02-28T15:08:03;58.45;;;22.45;;
10517;SDS011;5307;42.548;22.968;2023-02-28T15:10:32;52.63;;;22.83;;
10517;SDS011;5307;42.548;22.968;2023-02-28T15:13:01;49.15;;;23.45;;
10517;SDS011;5307;42.548;22.968;2023-02-28T15:15:35;52.90;;;23.23;;
10517;SDS011;5307;42.548;22.968;2023-02-28T15:18:10;52.25;;;20.67;;
10517;SDS011;5307;42.548;22.968;2023-02-28T15:20:47;63.15;;;31.15;;
10517;SDS011;5307;42.548;22.968;2023-02-28T15:23:15;56.95;;;28.00;;
10517;SDS011;5307;42.548;22.968;2023-02-28T15:25:44;46.25;;;18.58;;
10517;SDS011;5307;42.548;22.968;2023-02-28T15:28:12;52.75;;;22.42;;
10517;SDS011;5307;42.548;22.968;2023-02-28T15:30:50;35.72;;;18.33;;
10517;SDS011;5307;42.548;22.968;2023-02-28T15:33:26;38.47;;;15.98;;
10517;SDS011;5307;42.548;22.968;2023-02-28T15:36:04;39.53;;;18.55;;
10517;SDS011;5307;42.548;22.968;2023-02-28T15:38:36;38.13;;;19.58;;
10517;SDS011;5307;42.548;22.968;2023-02-28T15:41:03;48.40;;;21.75;;
10517;SDS011;5307;42.548;22.968;2023-02-28T15:43:34;37.90;;;20.27;;
10517;SDS011;5307;42.548;22.968;2023-02-28T15:46:02;61.35;;;29.55;;
10517;SDS011;5307;42.548;22.968;2023-02-28T15:48:32;49.15;;;18.40;;